Time;durP1;ratioP1;P1;durP2;ratioP2;P2;SDS_P1;SDS_P2;PMS_P1;PMS_P2;Temp;Humidity;BMP_temperature;BMP_pressure;BME280_temperature;BME280_humidity;BME280_pressure;Samples;Min_cycle;Max_cycle;Signal;HPM_P1;HPM_P2
2021/10/26 00:00:10;;;;;;;11.25;1.55;;;;;;;;;;5095861;28;20052;-54
2021/10/26 00:02:37;;;;;;;4.15;0.70;;;;;;;;;;5097133;28;20028;-55
2021/10/26 00:05:04;;;;;;;10.80;1.10;;;;;;;;;;5098098;28;20032;-55
2021/10/26 00:07:29;;;;;;;11.15;0.93;;;;;;;;;;5091189;28;20370;-54
2021/10/26 00:09:55;;;;;;;12.05;0.98;;;;;;;;;;5098387;28;20031;-55
2021/10/26 00:12:20;;;;;;;6.43;1.00;;;;;;;;;;5096704;28;20036;-55
2021/10/26 00:14:48;;;;;;;5.00;0.80;;;;;;;;;;5092782;28;20395;-55
2021/10/26 00:17:14;;;;;;;5.70;0.80;;;;;;;;;;5096786;28;20027;-54
2021/10/26 00:19:39;;;;;;;11.02;1.23;;;;;;;;;;5099232;28;20547;-54
2021/10/26 00:22:05;;;;;;;8.13;1.02;;;;;;;;;;5097184;28;20067;-54
2021/10/26 00:24:30;;;;;;;5.97;0.75;;;;;;;;;;5096443;28;20066;-55
2021/10/26 00:26:56;;;;;;;9.60;1.17;;;;;;;;;;5095779;28;20088;-54
2021/10/26 00:29:22;;;;;;;11.45;1.15;;;;;;;;;;5092998;28;20478;-53
2021/10/26 00:31:47;;;;;;;5.30;1.15;;;;;;;;;;5078518;28;20036;-54
2021/10/26 00:34:13;;;;;;;11.23;1.15;;;;;;;;;;5098806;28;20494;-54
2021/10/26 00:36:38;;;;;;;12.95;0.85;;;;;;;;;;5098333;28;20092;-55
2021/10/26 00:39:04;;;;;;;9.73;1.27;;;;;;;;;;5094815;28;20131;-53
2021/10/26 00:41:30;;;;;;;13.55;1.23;;;;;;;;;;5094026;28;20036;-53
2021/10/26 00:43:55;;;;;;;3.42;0.60;;;;;;;;;;5092958;28;20517;-55
2021/10/26 00:46:33;;;;;;;5.85;1.02;;;;;;;;;;5094358;28;20022;-56
2021/10/26 00:49:00;;;;;;;10.02;1.40;;;;;;;;;;5097230;28;20505;-57
2021/10/26 00:51:28;;;;;;;6.60;1.02;;;;;;;;;;5098409;28;20122;-54
2021/10/26 00:53:54;;;;;;;6.32;0.63;;;;;;;;;;5091601;28;20076;-52
2021/10/26 00:56:21;;;;;;;5.78;0.55;;;;;;;;;;5096191;28;20250;-54
2021/10/26 00:58:47;;;;;;;8.90;1.27;;;;;;;;;;5094895;28;20024;-51
2021/10/26 01:01:13;;;;;;;12.80;1.25;;;;;;;;;;5092641;28;20536;-52
2021/10/26 01:03:38;;;;;;;5.45;0.68;;;;;;;;;;5095335;28;20031;-54
2021/10/26 01:06:04;;;;;;;4.63;1.08;;;;;;;;;;5094627;28;20027;-54
2021/10/26 01:08:31;;;;;;;6.75;0.80;;;;;;;;;;5095378;28;20028;-52
2021/10/26 01:10:57;;;;;;;11.40;1.73;;;;;;;;;;5094375;28;20473;-54
2021/10/26 01:13:23;;;;;;;6.38;0.68;;;;;;;;;;5093979;28;20097;-54
2021/10/26 01:15:50;;;;;;;9.43;0.75;;;;;;;;;;5100391;27;20413;-53
2021/10/26 01:18:16;;;;;;;7.78;0.73;;;;;;;;;;5099369;28;20031;-53
2021/10/26 01:20:45;;;;;;;7.05;0.77;;;;;;;;;;5088226;28;20484;-51
2021/10/26 01:23:11;;;;;;;7.97;1.42;;;;;;;;;;5090602;28;20040;-53
2021/10/26 01:25:37;;;;;;;10.40;0.88;;;;;;;;;;5095092;28;20023;-53
2021/10/26 01:28:03;;;;;;;15.57;1.30;;;;;;;;;;5077143;28;20413;-51
2021/10/26 01:30:34;;;;;;;6.47;1.10;;;;;;;;;;5092039;28;20488;-54
2021/10/26 01:33:02;;;;;;;8.98;0.80;;;;;;;;;;5093829;27;20203;-54
2021/10/26 01:35:28;;;;;;;8.85;1.23;;;;;;;;;;5100021;28;20159;-54
2021/10/26 01:37:54;;;;;;;11.88;1.42;;;;;;;;;;5094336;28;20091;-54
2021/10/26 01:40:20;;;;;;;4.40;0.98;;;;;;;;;;5092376;28;20024;-54
2021/10/26 01:42:45;;;;;;;6.43;1.02;;;;;;;;;;5102178;28;20050;-49
2021/10/26 01:45:12;;;;;;;9.50;1.10;;;;;;;;;;5096456;28;20379;-53
2021/10/26 01:47:38;;;;;;;5.70;0.90;;;;;;;;;;5089832;28;20054;-53
2021/10/26 01:50:06;;;;;;;6.35;1.45;;;;;;;;;;5099331;28;20695;-55
2021/10/26 01:52:32;;;;;;;5.05;0.95;;;;;;;;;;5093153;28;20020;-52
2021/10/26 01:54:57;;;;;;;6.47;0.93;;;;;;;;;;5091340;27;20502;-53
2021/10/26 01:57:25;;;;;;;4.03;0.90;;;;;;;;;;5091091;28;20686;-54
2021/10/26 01:59:51;;;;;;;6.32;0.80;;;;;;;;;;5092659;28;20043;-54
2021/10/26 02:02:16;;;;;;;14.85;1.13;;;;;;;;;;5089485;28;20032;-56
2021/10/26 02:04:42;;;;;;;18.27;1.35;;;;;;;;;;5093302;28;20551;-53
2021/10/26 02:07:07;;;;;;;9.00;1.05;;;;;;;;;;5094526;28;20036;-54
2021/10/26 02:09:33;;;;;;;7.10;0.70;;;;;;;;;;5088738;28;20514;-55
2021/10/26 02:11:59;;;;;;;5.35;0.95;;;;;;;;;;5094085;28;20384;-54
2021/10/26 02:14:25;;;;;;;14.23;1.08;;;;;;;;;;5094754;28;20028;-54
2021/10/26 02:16:51;;;;;;;4.05;0.80;;;;;;;;;;5094495;28;20051;-55
2021/10/26 02:19:16;;;;;;;13.18;1.13;;;;;;;;;;5093666;28;20027;-53
2021/10/26 02:21:42;;;;;;;8.18;1.13;;;;;;;;;;5098284;28;20127;-54
2021/10/26 02:24:07;;;;;;;6.88;1.33;;;;;;;;;;5096061;28;20482;-54
2021/10/26 02:26:34;;;;;;;6.25;1.10;;;;;;;;;;5094044;28;20035;-53
2021/10/26 02:29:00;;;;;;;8.93;1.30;;;;;;;;;;5096780;28;20046;-54
2021/10/26 02:31:25;;;;;;;3.17;1.20;;;;;;;;;;5097754;28;20030;-53
2021/10/26 02:33:51;;;;;;;5.22;0.80;;;;;;;;;;5101117;28;20028;-53
2021/10/26 02:36:16;;;;;;;8.45;0.90;;;;;;;;;;5098701;28;20035;-54
2021/10/26 02:38:42;;;;;;;12.65;1.95;;;;;;;;;;5083390;28;20031;-55
2021/10/26 02:41:07;;;;;;;9.63;0.90;;;;;;;;;;5094823;28;20039;-53
2021/10/26 02:43:33;;;;;;;7.30;0.90;;;;;;;;;;5098065;28;20027;-56
2021/10/26 02:46:00;;;;;;;4.38;0.70;;;;;;;;;;5100889;28;20061;-55
2021/10/26 02:48:26;;;;;;;5.47;1.38;;;;;;;;;;5098628;28;20032;-56
2021/10/26 02:50:51;;;;;;;5.75;0.90;;;;;;;;;;5102676;28;20027;-55
2021/10/26 02:53:17;;;;;;;5.55;0.70;;;;;;;;;;5095049;28;20028;-55
2021/10/26 02:55:42;;;;;;;9.02;0.88;;;;;;;;;;5095108;28;20035;-54
2021/10/26 02:58:08;;;;;;;8.43;1.35;;;;;;;;;;5083656;28;20039;-54
2021/10/26 03:00:33;;;;;;;6.40;0.63;;;;;;;;;;5095009;28;20036;-55
2021/10/26 03:02:59;;;;;;;6.10;0.75;;;;;;;;;;5096197;28;20147;-53
2021/10/26 03:05:24;;;;;;;5.25;0.65;;;;;;;;;;5103825;28;20346;-54
2021/10/26 03:07:50;;;;;;;5.53;0.70;;;;;;;;;;5096287;28;20028;-55
2021/10/26 03:10:16;;;;;;;4.93;0.57;;;;;;;;;;5097472;28;20335;-55
2021/10/26 03:12:41;;;;;;;8.02;0.80;;;;;;;;;;5098797;28;20180;-55
2021/10/26 03:15:09;;;;;;;5.53;0.40;;;;;;;;;;5098051;28;20275;-55
2021/10/26 03:17:35;;;;;;;5.45;0.70;;;;;;;;;;5093338;28;20147;-55
2021/10/26 03:20:01;;;;;;;3.95;0.82;;;;;;;;;;5101429;28;20422;-54
2021/10/26 03:22:27;;;;;;;5.68;0.90;;;;;;;;;;5098171;28;20024;-56
2021/10/26 03:24:54;;;;;;;3.53;0.43;;;;;;;;;;5096739;28;20024;-59
2021/10/26 03:27:20;;;;;;;1.42;0.47;;;;;;;;;;5095786;28;20441;-54
2021/10/26 03:29:45;;;;;;;6.65;0.50;;;;;;;;;;5097570;28;20102;-55
2021/10/26 03:32:11;;;;;;;5.13;0.60;;;;;;;;;;5093762;28;20032;-55
2021/10/26 03:34:36;;;;;;;9.27;0.70;;;;;;;;;;5093479;28;20036;-55
2021/10/26 03:37:04;;;;;;;4.53;0.40;;;;;;;;;;5096816;28;20491;-53
2021/10/26 03:39:29;;;;;;;3.13;0.63;;;;;;;;;;5094712;28;20446;-56
2021/10/26 03:41:55;;;;;;;2.63;0.52;;;;;;;;;;5101222;28;20023;-55
2021/10/26 03:44:21;;;;;;;2.78;0.43;;;;;;;;;;5096053;28;20751;-56
2021/10/26 03:46:46;;;;;;;7.60;0.40;;;;;;;;;;5096988;28;20024;-55
2021/10/26 03:49:12;;;;;;;1.85;0.30;;;;;;;;;;5096001;27;20130;-54
2021/10/26 03:51:38;;;;;;;3.05;0.30;;;;;;;;;;5096165;28;20035;-55
2021/10/26 03:54:03;;;;;;;1.83;0.32;;;;;;;;;;5092239;28;20056;-55
2021/10/26 03:56:29;;;;;;;8.00;0.60;;;;;;;;;;5093857;28;20036;-54
2021/10/26 03:58:56;;;;;;;1.15;0.30;;;;;;;;;;5099848;28;20126;-54
2021/10/26 04:01:21;;;;;;;3.13;0.40;;;;;;;;;;5093510;28;20116;-54
2021/10/26 04:03:47;;;;;;;5.55;0.40;;;;;;;;;;5102711;28;20069;-56
2021/10/26 04:06:15;;;;;;;1.25;0.45;;;;;;;;;;5099661;28;20032;-54
2021/10/26 04:11:18;;;;;;;4.25;0.63;;;;;;;;;;5099372;28;20035;-54
2021/10/26 04:13:43;;;;;;;3.35;0.52;;;;;;;;;;5102337;28;20040;-55
2021/10/26 04:16:10;;;;;;;5.35;0.40;;;;;;;;;;5095590;28;20700;-55
2021/10/26 04:18:35;;;;;;;3.30;0.40;;;;;;;;;;5100666;28;20036;-55
2021/10/26 04:21:02;;;;;;;2.50;0.52;;;;;;;;;;5098090;28;20406;-55
2021/10/26 04:23:28;;;;;;;5.38;0.30;;;;;;;;;;5097587;28;20044;-55
2021/10/26 04:25:54;;;;;;;3.85;0.68;;;;;;;;;;5094468;28;20078;-56
2021/10/26 04:28:19;;;;;;;5.57;0.50;;;;;;;;;;5097299;28;20540;-55
2021/10/26 04:30:45;;;;;;;2.58;0.30;;;;;;;;;;5099306;28;20024;-55
2021/10/26 04:33:11;;;;;;;1.45;0.30;;;;;;;;;;5093394;28;20096;-55
2021/10/26 04:35:37;;;;;;;1.80;0.40;;;;;;;;;;5096460;28;20116;-55
2021/10/26 04:38:04;;;;;;;3.65;0.30;;;;;;;;;;5099026;28;20075;-55
2021/10/26 04:40:31;;;;;;;1.75;0.30;;;;;;;;;;5097992;28;20587;-55
2021/10/26 04:42:57;;;;;;;2.95;0.30;;;;;;;;;;5095873;28;20031;-55
2021/10/26 04:45:23;;;;;;;6.22;0.95;;;;;;;;;;5093315;28;20482;-55
2021/10/26 04:47:49;;;;;;;1.88;0.30;;;;;;;;;;5085397;28;20103;-55
2021/10/26 04:50:15;;;;;;;3.40;0.38;;;;;;;;;;5093707;28;20028;-55
2021/10/26 04:52:41;;;;;;;3.95;0.35;;;;;;;;;;5096743;28;20165;-54
2021/10/26 04:55:07;;;;;;;4.38;0.50;;;;;;;;;;5095135;28;20212;-55
2021/10/26 04:57:33;;;;;;;2.95;0.90;;;;;;;;;;5095731;28;20468;-55
2021/10/26 04:59:58;;;;;;;5.03;0.45;;;;;;;;;;5075539;28;20085;-56
2021/10/26 05:02:24;;;;;;;5.22;0.82;;;;;;;;;;5093904;28;20047;-55
2021/10/26 05:04:49;;;;;;;7.93;1.75;;;;;;;;;;5093436;28;20123;-54
2021/10/26 05:07:16;;;;;;;4.68;0.30;;;;;;;;;;5093519;28;20501;-55
2021/10/26 05:09:42;;;;;;;7.43;0.50;;;;;;;;;;5094350;28;20405;-56
2021/10/26 05:12:08;;;;;;;3.03;0.93;;;;;;;;;;5096888;28;20024;-54
2021/10/26 05:14:34;;;;;;;6.85;0.50;;;;;;;;;;5089552;28;20089;-56
2021/10/26 05:17:01;;;;;;;2.72;0.43;;;;;;;;;;5093919;28;20042;-56
2021/10/26 05:19:28;;;;;;;4.30;0.50;;;;;;;;;;5092575;28;20043;-55
2021/10/26 05:21:54;;;;;;;3.13;0.57;;;;;;;;;;5094926;28;20509;-55
2021/10/26 05:24:20;;;;;;;4.95;0.60;;;;;;;;;;5092814;28;20071;-56
2021/10/26 05:26:46;;;;;;;5.72;0.65;;;;;;;;;;5094938;28;20062;-55
2021/10/26 05:29:12;;;;;;;5.53;0.63;;;;;;;;;;5094993;28;20035;-55
2021/10/26 05:31:39;;;;;;;4.72;0.45;;;;;;;;;;5092941;28;20047;-55
2021/10/26 05:34:09;;;;;;;4.32;0.75;;;;;;;;;;5089990;28;20027;-56
2021/10/26 05:36:38;;;;;;;9.10;0.65;;;;;;;;;;5079748;28;20107;-56
2021/10/26 05:39:09;;;;;;;7.05;0.75;;;;;;;;;;5096083;28;20032;-56
2021/10/26 05:41:35;;;;;;;7.32;0.70;;;;;;;;;;5092508;28;20032;-56
2021/10/26 05:44:01;;;;;;;2.95;0.63;;;;;;;;;;5094523;28;20043;-56
2021/10/26 05:46:26;;;;;;;3.15;0.52;;;;;;;;;;5091906;28;20120;-57
2021/10/26 05:48:52;;;;;;;8.57;1.65;;;;;;;;;;5091382;28;20035;-57
2021/10/26 05:51:18;;;;;;;8.52;1.58;;;;;;;;;;5088626;28;20036;-56
2021/10/26 05:53:43;;;;;;;7.03;0.93;;;;;;;;;;5093547;28;20048;-56
2021/10/26 05:56:09;;;;;;;9.45;0.70;;;;;;;;;;5086294;28;20039;-56
2021/10/26 05:58:35;;;;;;;9.32;0.68;;;;;;;;;;5092554;28;20576;-56
2021/10/26 06:01:00;;;;;;;4.43;0.60;;;;;;;;;;5090965;28;20084;-56
2021/10/26 06:03:26;;;;;;;5.20;1.08;;;;;;;;;;5091780;28;20031;-57
2021/10/26 06:05:51;;;;;;;5.78;0.50;;;;;;;;;;5091336;28;20027;-56
2021/10/26 06:08:17;;;;;;;1.60;0.50;;;;;;;;;;5093548;28;20038;-56
2021/10/26 06:10:46;;;;;;;3.03;0.80;;;;;;;;;;5096442;28;20060;-55
2021/10/26 06:13:16;;;;;;;5.65;0.90;;;;;;;;;;5094678;28;20463;-56
2021/10/26 06:15:41;;;;;;;6.07;1.15;;;;;;;;;;5091324;28;20032;-55
2021/10/26 06:18:07;;;;;;;5.38;0.70;;;;;;;;;;5097377;28;20046;-56
2021/10/26 06:20:33;;;;;;;5.30;0.70;;;;;;;;;;5091990;28;20426;-57
2021/10/26 06:22:59;;;;;;;5.28;0.80;;;;;;;;;;5091046;28;20028;-55
2021/10/26 06:25:26;;;;;;;7.00;0.80;;;;;;;;;;5089620;28;20035;-55
2021/10/26 06:27:51;;;;;;;4.78;0.57;;;;;;;;;;5074321;28;21751;-55
2021/10/26 06:30:17;;;;;;;10.15;1.10;;;;;;;;;;5087555;28;20028;-54
2021/10/26 06:32:44;;;;;;;4.22;0.70;;;;;;;;;;5096316;28;20533;-55
2021/10/26 06:35:11;;;;;;;10.95;0.85;;;;;;;;;;5096617;28;20051;-54
2021/10/26 06:37:40;;;;;;;5.90;1.45;;;;;;;;;;5094801;28;20031;-55
2021/10/26 06:40:06;;;;;;;3.63;0.68;;;;;;;;;;5096840;28;20035;-58
2021/10/26 06:42:33;;;;;;;10.80;0.88;;;;;;;;;;5094440;28;20419;-55
2021/10/26 06:44:59;;;;;;;8.93;1.23;;;;;;;;;;5073735;28;20047;-55
2021/10/26 06:47:25;;;;;;;7.90;1.23;;;;;;;;;;5087708;28;20032;-55
2021/10/26 06:49:50;;;;;;;8.20;0.85;;;;;;;;;;5090956;28;20443;-55
2021/10/26 06:52:16;;;;;;;7.05;0.98;;;;;;;;;;5092923;28;20036;-49
2021/10/26 06:54:43;;;;;;;9.60;1.38;;;;;;;;;;5097323;28;20058;-53
2021/10/26 06:57:08;;;;;;;7.53;0.88;;;;;;;;;;5089582;28;20036;-51
2021/10/26 06:59:34;;;;;;;3.20;0.80;;;;;;;;;;5088746;28;20035;-49
2021/10/26 07:02:01;;;;;;;2.70;0.80;;;;;;;;;;5092866;28;20043;-53
2021/10/26 07:04:27;;;;;;;9.57;1.58;;;;;;;;;;5096202;28;20029;-53
2021/10/26 07:06:52;;;;;;;13.43;1.30;;;;;;;;;;5093287;28;20035;-51
2021/10/26 07:09:18;;;;;;;7.78;0.90;;;;;;;;;;5100661;28;20524;-50
2021/10/26 07:11:43;;;;;;;7.95;1.10;;;;;;;;;;5096035;28;20024;-52
2021/10/26 07:14:09;;;;;;;14.27;1.25;;;;;;;;;;5079882;28;20035;-55
2021/10/26 07:16:34;;;;;;;5.40;1.10;;;;;;;;;;5089163;28;20028;-53
2021/10/26 07:19:00;;;;;;;8.02;1.20;;;;;;;;;;5100902;27;20115;-53
2021/10/26 07:21:25;;;;;;;12.63;1.27;;;;;;;;;;5094260;28;20042;-51
2021/10/26 07:23:51;;;;;;;6.25;0.90;;;;;;;;;;5099895;27;20031;-53
2021/10/26 07:26:17;;;;;;;2.83;0.57;;;;;;;;;;5096429;28;20158;-50
2021/10/26 07:28:42;;;;;;;7.18;0.90;;;;;;;;;;5096382;28;20027;-52
2021/10/26 07:31:08;;;;;;;5.70;1.27;;;;;;;;;;5098162;28;20024;-54
2021/10/26 07:33:35;;;;;;;7.80;1.75;;;;;;;;;;5093433;28;20043;-54
2021/10/26 07:36:04;;;;;;;9.27;1.50;;;;;;;;;;5102269;28;20494;-52
2021/10/26 07:38:33;;;;;;;7.97;1.30;;;;;;;;;;5098215;28;20046;-50
2021/10/26 07:40:59;;;;;;;8.85;1.13;;;;;;;;;;5097012;28;20040;-54
2021/10/26 07:43:26;;;;;;;10.57;0.98;;;;;;;;;;5099266;28;20509;-54
2021/10/26 07:45:52;;;;;;;8.60;1.30;;;;;;;;;;5097458;28;20028;-53
2021/10/26 07:48:18;;;;;;;5.65;0.70;;;;;;;;;;5098933;28;20087;-54
2021/10/26 07:50:45;;;;;;;3.63;1.00;;;;;;;;;;5082221;28;20114;-52
2021/10/26 07:53:12;;;;;;;3.58;0.77;;;;;;;;;;5093057;28;20497;-50
2021/10/26 07:55:37;;;;;;;6.13;1.08;;;;;;;;;;5097403;28;20047;-55
2021/10/26 07:58:04;;;;;;;7.25;1.05;;;;;;;;;;5095252;28;20428;-53
2021/10/26 08:00:29;;;;;;;4.75;1.13;;;;;;;;;;5099990;28;20024;-50
2021/10/26 08:02:55;;;;;;;7.22;1.88;;;;;;;;;;5098118;28;20695;-52
2021/10/26 08:05:21;;;;;;;8.38;1.20;;;;;;;;;;5090797;28;20123;-54
2021/10/26 08:07:47;;;;;;;8.65;1.92;;;;;;;;;;5101813;28;20121;-54
2021/10/26 08:10:12;;;;;;;11.25;1.63;;;;;;;;;;5096568;28;20362;-53
2021/10/26 08:12:38;;;;;;;9.45;1.48;;;;;;;;;;5102220;28;20418;-52
2021/10/26 08:15:04;;;;;;;10.07;1.88;;;;;;;;;;5101762;28;20027;-51
2021/10/26 08:17:29;;;;;;;6.03;1.40;;;;;;;;;;5090521;28;20467;-53
2021/10/26 08:19:55;;;;;;;8.73;1.63;;;;;;;;;;5097820;28;20115;-54
2021/10/26 08:22:22;;;;;;;12.35;1.42;;;;;;;;;;5095475;28;20465;-50
2021/10/26 08:24:51;;;;;;;10.52;1.35;;;;;;;;;;5090353;28;20024;-50
2021/10/26 08:27:18;;;;;;;3.75;1.15;;;;;;;;;;5090042;28;20526;-51
2021/10/26 08:34:46;;;;;;;5.70;1.33;;;;;;;;;;5094866;28;20035;-53
2021/10/26 08:37:13;;;;;;;8.43;1.40;;;;;;;;;;5091579;28;20040;-53
2021/10/26 08:39:41;;;;;;;10.02;1.40;;;;;;;;;;5095441;28;20063;-54
2021/10/26 08:42:10;;;;;;;15.05;2.53;;;;;;;;;;5096320;28;20548;-52
2021/10/26 08:44:36;;;;;;;8.73;1.92;;;;;;;;;;5104028;28;20835;-53
2021/10/26 08:47:02;;;;;;;11.40;1.65;;;;;;;;;;5093277;28;20024;-53
2021/10/26 08:49:28;;;;;;;7.90;1.30;;;;;;;;;;5100565;28;20032;-53
2021/10/26 08:51:55;;;;;;;6.43;1.30;;;;;;;;;;5099868;28;20043;-50
2021/10/26 08:54:23;;;;;;;6.32;1.10;;;;;;;;;;5095714;28;20062;-54
2021/10/26 08:56:48;;;;;;;6.90;1.15;;;;;;;;;;5100208;28;20040;-54
2021/10/26 08:59:23;;;;;;;13.52;1.65;;;;;;;;;;5092500;28;20032;-52
2021/10/26 09:01:51;;;;;;;12.80;1.75;;;;;;;;;;5095768;28;20679;-54
2021/10/26 09:04:16;;;;;;;11.85;2.13;;;;;;;;;;5093958;28;20040;-54
2021/10/26 09:06:52;;;;;;;5.32;1.77;;;;;;;;;;5097378;28;20035;-54
2021/10/26 09:09:19;;;;;;;9.18;1.95;;;;;;;;;;5099633;28;20070;-53
2021/10/26 09:17:29;;;;;;;8.93;1.20;;;;;;;;;;5100336;28;20088;-53
2021/10/26 09:19:56;;;;;;;5.68;1.50;;;;;;;;;;5097549;28;20020;-53
2021/10/26 09:22:24;;;;;;;11.60;2.03;;;;;;;;;;5099487;28;20077;-49
2021/10/26 09:24:54;;;;;;;10.90;1.75;;;;;;;;;;5076273;28;20494;-53
2021/10/26 09:27:21;;;;;;;18.23;2.15;;;;;;;;;;5092380;28;20033;-51
2021/10/26 09:29:49;;;;;;;8.98;1.63;;;;;;;;;;5096667;28;20028;-49
2021/10/26 09:32:31;;;;;;;7.80;1.38;;;;;;;;;;5092736;28;20118;-50
2021/10/26 09:35:00;;;;;;;15.52;2.00;;;;;;;;;;5092540;28;20066;-54
2021/10/26 09:37:31;;;;;;;13.25;2.35;;;;;;;;;;5100347;28;20061;-50
2021/10/26 09:40:00;;;;;;;8.68;1.65;;;;;;;;;;5091901;28;20023;-49
2021/10/26 09:42:43;;;;;;;11.80;1.73;;;;;;;;;;5091445;28;20044;-51
2021/10/26 09:45:11;;;;;;;14.80;1.83;;;;;;;;;;5087883;28;20031;-50
2021/10/26 09:47:38;;;;;;;13.48;2.15;;;;;;;;;;5094453;28;20066;-50
2021/10/26 09:50:07;;;;;;;15.32;2.60;;;;;;;;;;5094642;28;20035;-51
2021/10/26 09:52:36;;;;;;;18.05;2.30;;;;;;;;;;5093409;28;20526;-51
2021/10/26 09:57:42;;;;;;;11.07;1.85;;;;;;;;;;5090615;28;20043;-50
2021/10/26 10:00:09;;;;;;;14.68;1.92;;;;;;;;;;5092810;28;20422;-54
2021/10/26 10:02:35;;;;;;;8.30;2.05;;;;;;;;;;5090467;28;20499;-54
2021/10/26 10:05:04;;;;;;;14.80;2.03;;;;;;;;;;5092506;28;20043;-51
2021/10/26 10:07:31;;;;;;;14.43;1.98;;;;;;;;;;5097343;28;20034;-50
2021/10/26 10:10:04;;;;;;;14.52;2.25;;;;;;;;;;5095363;28;20375;-53
2021/10/26 10:12:31;;;;;;;12.70;2.15;;;;;;;;;;5095147;28;20123;-52
2021/10/26 10:14:57;;;;;;;14.68;2.35;;;;;;;;;;5095185;28;20031;-49
2021/10/26 10:17:25;;;;;;;19.42;1.95;;;;;;;;;;5097052;28;20494;-50
2021/10/26 10:19:55;;;;;;;11.95;1.90;;;;;;;;;;5096243;28;20116;-50
2021/10/26 10:22:29;;;;;;;18.05;1.90;;;;;;;;;;5083756;28;20031;-51
2021/10/26 10:25:00;;;;;;;19.08;3.28;;;;;;;;;;5095443;28;20497;-50
2021/10/26 10:27:31;;;;;;;11.25;2.10;;;;;;;;;;5082385;28;20287;-49
2021/10/26 10:29:57;;;;;;;13.15;1.55;;;;;;;;;;5090570;28;20412;-50
2021/10/26 10:32:29;;;;;;;15.85;1.85;;;;;;;;;;5090297;28;20032;-50
2021/10/26 10:34:56;;;;;;;14.70;2.77;;;;;;;;;;5093121;28;20028;-54
2021/10/26 10:37:27;;;;;;;11.38;1.95;;;;;;;;;;5095743;28;20035;-50
2021/10/26 10:40:03;;;;;;;14.40;2.10;;;;;;;;;;5096455;28;20038;-53
2021/10/26 10:42:30;;;;;;;19.17;2.15;;;;;;;;;;5092935;28;20035;-51
2021/10/26 10:45:18;;;;;;;8.57;1.88;;;;;;;;;;5074987;28;20032;-49
2021/10/26 10:47:44;;;;;;;10.65;1.67;;;;;;;;;;5091410;28;20097;-51
2021/10/26 10:50:38;;;;;;;16.77;3.30;;;;;;;;;;5089219;28;20490;-51
2021/10/26 10:53:10;;;;;;;15.27;2.25;;;;;;;;;;5097733;28;20498;-51
2021/10/26 10:55:37;;;;;;;10.77;1.88;;;;;;;;;;5099612;28;20138;-53
2021/10/26 10:58:25;;;;;;;22.67;2.28;;;;;;;;;;5079057;28;20513;-54
2021/10/26 11:00:53;;;;;;;16.85;2.17;;;;;;;;;;5091303;28;20126;-51
2021/10/26 11:03:30;;;;;;;14.32;2.10;;;;;;;;;;5095473;28;20085;-50
2021/10/26 11:05:55;;;;;;;16.63;1.92;;;;;;;;;;5097158;28;20142;-51
2021/10/26 11:08:39;;;;;;;13.82;3.10;;;;;;;;;;5095807;28;20931;-51
2021/10/26 11:11:05;;;;;;;11.45;1.83;;;;;;;;;;5099681;28;20020;-50
2021/10/26 11:13:32;;;;;;;11.75;1.80;;;;;;;;;;5095441;28;20097;-50
2021/10/26 11:16:03;;;;;;;10.77;2.03;;;;;;;;;;5093025;28;20486;-53
2021/10/26 11:18:48;;;;;;;16.35;1.92;;;;;;;;;;5098601;28;20637;-52
2021/10/26 11:21:23;;;;;;;12.63;1.95;;;;;;;;;;5099555;28;20437;-53
2021/10/26 11:23:51;;;;;;;13.23;2.20;;;;;;;;;;5098731;28;20080;-50
2021/10/26 11:26:19;;;;;;;15.23;2.22;;;;;;;;;;5099211;28;20066;-49
2021/10/26 11:28:53;;;;;;;22.52;2.45;;;;;;;;;;5093143;28;20112;-53
2021/10/26 11:31:23;;;;;;;17.33;3.30;;;;;;;;;;5099080;28;20016;-51
2021/10/26 11:33:59;;;;;;;11.80;2.10;;;;;;;;;;5095979;28;20439;-51
2021/10/26 11:36:31;;;;;;;16.15;2.25;;;;;;;;;;5095838;28;20055;-51
2021/10/26 11:38:59;;;;;;;18.42;2.50;;;;;;;;;;5094652;28;21021;-52
2021/10/26 11:41:29;;;;;;;11.82;2.40;;;;;;;;;;5098817;28;20418;-53
2021/10/26 11:43:55;;;;;;;9.98;1.90;;;;;;;;;;5095141;28;20055;-49
2021/10/26 11:46:40;;;;;;;9.30;2.65;;;;;;;;;;5093002;28;20066;-49
2021/10/26 11:49:21;;;;;;;11.05;2.05;;;;;;;;;;5094807;28;20011;-49
2021/10/26 11:51:57;;;;;;;20.25;2.28;;;;;;;;;;5099932;28;20030;-52
2021/10/26 11:54:30;;;;;;;15.93;2.90;;;;;;;;;;5099387;28;20255;-52
2021/10/26 11:57:23;;;;;;;12.98;2.22;;;;;;;;;;5093299;28;20047;-49
2021/10/26 11:59:48;;;;;;;12.75;2.67;;;;;;;;;;5087806;28;20043;-52
2021/10/26 12:02:17;;;;;;;11.88;1.88;;;;;;;;;;5095988;28;20088;-52
2021/10/26 12:04:50;;;;;;;15.20;2.17;;;;;;;;;;5095888;28;20024;-53
2021/10/26 12:07:18;;;;;;;10.68;1.80;;;;;;;;;;5099977;28;20035;-53
2021/10/26 12:09:49;;;;;;;14.43;2.40;;;;;;;;;;5091070;28;20107;-48
2021/10/26 12:12:17;;;;;;;17.92;2.35;;;;;;;;;;5095799;28;20023;-52
2021/10/26 12:15:06;;;;;;;12.15;2.53;;;;;;;;;;5098975;28;20040;-50
2021/10/26 12:17:36;;;;;;;18.73;2.60;;;;;;;;;;5102791;28;20034;-49
2021/10/26 12:20:06;;;;;;;13.57;2.47;;;;;;;;;;5096233;28;20059;-50
2021/10/26 12:22:37;;;;;;;19.45;2.58;;;;;;;;;;5093126;28;20111;-50
2021/10/26 12:25:20;;;;;;;17.17;2.50;;;;;;;;;;5091735;28;20041;-53
2021/10/26 12:27:58;;;;;;;17.75;2.50;;;;;;;;;;5096023;28;20039;-50
2021/10/26 12:30:26;;;;;;;12.90;3.28;;;;;;;;;;5096502;28;20039;-50
2021/10/26 12:33:01;;;;;;;10.10;2.15;;;;;;;;;;5097177;28;20051;-53
2021/10/26 12:35:49;;;;;;;18.17;2.20;;;;;;;;;;5094047;28;20040;-50
2021/10/26 12:38:29;;;;;;;13.02;2.22;;;;;;;;;;5091602;28;20028;-50
2021/10/26 12:40:56;;;;;;;16.95;2.38;;;;;;;;;;5091070;28;20042;-51
2021/10/26 12:43:25;;;;;;;14.43;2.53;;;;;;;;;;5097930;28;20046;-51
2021/10/26 12:45:57;;;;;;;15.68;3.40;;;;;;;;;;5097732;28;20031;-51
2021/10/26 12:48:34;;;;;;;12.27;2.00;;;;;;;;;;5100553;28;20038;-55
2021/10/26 12:51:02;;;;;;;20.25;3.53;;;;;;;;;;5098589;28;20012;-54
2021/10/26 12:53:38;;;;;;;9.18;1.77;;;;;;;;;;5097111;28;20032;-54
2021/10/26 12:56:15;;;;;;;14.20;2.35;;;;;;;;;;5097264;28;20059;-50
2021/10/26 12:58:44;;;;;;;19.17;2.55;;;;;;;;;;5090113;28;20032;-55
2021/10/26 13:01:26;;;;;;;10.25;2.28;;;;;;;;;;5089162;28;20154;-53
2021/10/26 13:04:07;;;;;;;19.75;2.83;;;;;;;;;;5089796;28;20024;-54
2021/10/26 13:06:37;;;;;;;17.05;2.58;;;;;;;;;;5091423;28;20066;-52
2021/10/26 13:09:05;;;;;;;16.52;2.63;;;;;;;;;;5096784;28;20027;-51
2021/10/26 13:11:37;;;;;;;18.17;2.80;;;;;;;;;;5099549;28;20126;-54
2021/10/26 13:14:08;;;;;;;16.45;2.15;;;;;;;;;;5089854;28;20012;-55
2021/10/26 13:16:37;;;;;;;9.75;1.90;;;;;;;;;;5093802;28;20350;-54
2021/10/26 13:19:28;;;;;;;21.65;2.60;;;;;;;;;;5091924;27;20099;-54
2021/10/26 13:22:09;;;;;;;18.00;2.47;;;;;;;;;;5092338;28;20119;-53
2021/10/26 13:24:37;;;;;;;16.77;2.70;;;;;;;;;;5092728;28;20028;-50
2021/10/26 13:27:03;;;;;;;9.63;2.00;;;;;;;;;;5091318;28;20340;-54
2021/10/26 13:29:41;;;;;;;13.60;2.47;;;;;;;;;;5095169;28;20088;-53
2021/10/26 13:32:15;;;;;;;15.23;2.45;;;;;;;;;;5094260;27;20032;-51
2021/10/26 13:34:40;;;;;;;16.35;2.42;;;;;;;;;;5095162;28;20027;-54
2021/10/26 13:37:05;;;;;;;15.68;2.70;;;;;;;;;;5095772;28;20042;-54
2021/10/26 13:39:31;;;;;;;14.52;2.42;;;;;;;;;;5093492;28;20542;-54
2021/10/26 13:41:57;;;;;;;19.48;2.50;;;;;;;;;;5094292;28;20032;-52
2021/10/26 13:44:23;;;;;;;22.98;2.50;;;;;;;;;;5102957;28;20499;-54
2021/10/26 13:46:50;;;;;;;17.83;2.65;;;;;;;;;;5101270;28;20032;-53
2021/10/26 13:49:16;;;;;;;23.38;2.50;;;;;;;;;;5103687;28;20024;-53
2021/10/26 13:51:43;;;;;;;11.63;2.17;;;;;;;;;;5097007;28;20034;-53
2021/10/26 13:54:08;;;;;;;15.88;2.63;;;;;;;;;;5096321;28;20055;-54
2021/10/26 13:56:34;;;;;;;18.55;2.15;;;;;;;;;;5101312;28;20422;-54
2021/10/26 13:59:00;;;;;;;14.38;2.38;;;;;;;;;;5101228;28;20024;-54
2021/10/26 14:01:27;;;;;;;19.75;3.65;;;;;;;;;;5104342;28;20038;-54
2021/10/26 14:03:52;;;;;;;26.00;2.53;;;;;;;;;;5084689;28;20043;-54
2021/10/26 14:06:21;;;;;;;15.40;2.10;;;;;;;;;;5082295;28;20036;-53
2021/10/26 14:08:47;;;;;;;13.10;2.05;;;;;;;;;;5098338;28;20031;-54
2021/10/26 14:11:13;;;;;;;12.68;2.65;;;;;;;;;;5100855;28;20103;-52
2021/10/26 14:13:41;;;;;;;16.73;2.65;;;;;;;;;;5095210;28;20098;-54
2021/10/26 14:16:11;;;;;;;18.20;2.80;;;;;;;;;;5099457;28;20023;-52
2021/10/26 14:18:41;;;;;;;15.32;2.55;;;;;;;;;;5100303;28;20038;-50
2021/10/26 14:21:07;;;;;;;13.52;2.17;;;;;;;;;;5093198;28;20036;-53
2021/10/26 14:23:34;;;;;;;21.92;3.28;;;;;;;;;;5095325;28;20570;-53
2021/10/26 14:26:01;;;;;;;7.85;1.77;;;;;;;;;;5094168;28;20039;-57
2021/10/26 14:28:26;;;;;;;17.45;2.15;;;;;;;;;;5093307;28;20039;-53
2021/10/26 14:30:54;;;;;;;27.77;3.95;;;;;;;;;;5091704;28;20031;-52
2021/10/26 14:33:21;;;;;;;14.50;1.98;;;;;;;;;;5089981;28;20032;-54
2021/10/26 14:35:49;;;;;;;21.58;2.20;;;;;;;;;;5094561;28;20028;-53
2021/10/26 14:38:20;;;;;;;12.40;1.90;;;;;;;;;;5090476;28;20036;-53
2021/10/26 14:41:00;;;;;;;10.30;2.42;;;;;;;;;;5093353;28;20068;-52
2021/10/26 14:54:54;;;;;;;14.73;2.20;;;;;;;;;;5095428;28;20097;-51
2021/10/26 14:57:19;;;;;;;23.42;3.00;;;;;;;;;;5092827;28;20035;-51
2021/10/26 14:59:45;;;;;;;14.23;1.77;;;;;;;;;;5096703;28;20442;-52
2021/10/26 15:02:11;;;;;;;11.75;1.85;;;;;;;;;;5096234;28;20031;-49
2021/10/26 15:04:37;;;;;;;17.65;2.42;;;;;;;;;;5098310;28;20085;-50
2021/10/26 15:07:03;;;;;;;15.57;2.47;;;;;;;;;;5092695;28;20032;-49
2021/10/26 15:09:40;;;;;;;14.23;2.63;;;;;;;;;;5092364;28;20028;-53